createdAt,value
2022-10-17T00:00:38.605Z,4.17
2022-10-17T00:03:05.687Z,3.83
2022-10-17T00:05:32.506Z,4.17
2022-10-17T00:07:59.313Z,4.27
2022-10-17T00:10:26.312Z,3.63
2022-10-17T00:12:53.347Z,4.10
2022-10-17T00:15:22.303Z,3.83
2022-10-17T00:17:49.191Z,3.57
2022-10-17T00:20:16.748Z,4.10
2022-10-17T00:22:43.935Z,3.90
2022-10-17T00:25:11.493Z,3.40
2022-10-17T00:27:39.892Z,3.87
2022-10-17T00:30:10.113Z,3.57
2022-10-17T00:32:37.283Z,3.13
2022-10-17T00:35:04.535Z,3.00
2022-10-17T00:37:32.219Z,3.33
2022-10-17T00:39:59.132Z,3.17
2022-10-17T00:42:27.105Z,3.27
2022-10-17T00:45:15.170Z,2.70
2022-10-17T00:47:43.536Z,2.80
2022-10-17T00:50:11.203Z,2.50
2022-10-17T00:52:38.156Z,2.50
2022-10-17T00:55:12.412Z,2.83
2022-10-17T00:57:39.728Z,2.60
2022-10-17T01:00:09.271Z,2.63
2022-10-17T01:02:36.848Z,2.50
2022-10-17T01:05:04.590Z,2.80
2022-10-17T01:07:34.806Z,2.60
2022-10-17T01:10:05.322Z,2.60
2022-10-17T01:12:41.476Z,2.40
2022-10-17T01:15:24.387Z,2.87
2022-10-17T01:18:06.526Z,2.53
2022-10-17T01:20:55.100Z,2.30
2022-10-17T01:23:48.803Z,2.30
2022-10-17T01:26:30.539Z,2.47
2022-10-17T01:29:03.064Z,2.53
2022-10-17T01:31:40.552Z,2.70
2022-10-17T01:34:25.730Z,2.50
2022-10-17T01:37:01.215Z,2.70
2022-10-17T01:39:47.766Z,2.57
2022-10-17T01:46:24.237Z,2.50
2022-10-17T01:48:51.395Z,2.40
2022-10-17T01:51:25.532Z,2.63
2022-10-17T01:54:01.231Z,2.37
2022-10-17T01:56:30.908Z,2.40
2022-10-17T01:59:01.652Z,2.50
2022-10-17T02:01:30.165Z,2.63
2022-10-17T02:03:58.288Z,2.50
2022-10-17T02:06:25.606Z,2.30
2022-10-17T02:08:52.542Z,2.50
2022-10-17T02:11:24.213Z,2.53
2022-10-17T02:14:24.222Z,2.50
2022-10-17T02:17:14.164Z,2.40
2022-10-17T02:20:03.145Z,2.50
2022-10-17T02:23:12.562Z,2.60
2022-10-17T02:25:49.121Z,2.40
2022-10-17T02:28:18.903Z,2.63
2022-10-17T02:30:54.802Z,2.60
2022-10-17T02:33:27.993Z,2.60
2022-10-17T02:35:58.306Z,2.77
2022-10-17T02:38:25.920Z,2.83
2022-10-17T02:40:54.084Z,2.53
2022-10-17T02:43:22.441Z,2.50
2022-10-17T02:45:49.437Z,2.60
2022-10-17T02:48:25.175Z,2.53
2022-10-17T02:50:58.274Z,2.37
2022-10-17T02:53:39.917Z,2.60
2022-10-17T02:56:14.676Z,2.83
2022-10-17T02:58:43.268Z,2.63
2022-10-17T03:01:10.199Z,2.50
2022-10-17T03:03:36.961Z,2.40
2022-10-17T03:06:03.822Z,2.40
2022-10-17T03:08:30.777Z,2.70
2022-10-17T03:10:57.518Z,2.63
2022-10-17T03:13:24.257Z,2.77
2022-10-17T03:15:51.017Z,2.53
2022-10-17T03:18:17.682Z,2.63
2022-10-17T03:20:44.453Z,2.60
2022-10-17T03:23:11.229Z,2.90
2022-10-17T03:25:38.157Z,2.30
2022-10-17T03:28:05.603Z,2.43
2022-10-17T03:30:32.976Z,2.50
2022-10-17T03:33:00.443Z,2.57
2022-10-17T03:35:27.598Z,2.70
2022-10-17T03:37:55.882Z,2.43
2022-10-17T03:40:22.761Z,2.50
2022-10-17T03:42:49.726Z,2.70
2022-10-17T03:45:16.460Z,2.60
2022-10-17T03:47:43.176Z,2.60
2022-10-17T03:50:10.011Z,2.80
2022-10-17T03:52:37.047Z,2.57
2022-10-17T03:55:04.050Z,2.37
2022-10-17T03:57:31.218Z,2.40
2022-10-17T03:59:58.270Z,2.23
2022-10-17T04:02:25.108Z,2.87
2022-10-17T04:04:51.956Z,2.30
2022-10-17T04:07:18.828Z,2.40
2022-10-17T04:09:45.753Z,2.30
2022-10-17T04:12:12.526Z,2.47
2022-10-17T04:14:39.236Z,2.27
2022-10-17T04:17:06.173Z,2.20
2022-10-17T04:19:33.034Z,2.10
2022-10-17T04:21:59.753Z,2.37
2022-10-17T04:24:26.643Z,2.37
2022-10-17T04:26:54.702Z,2.50
2022-10-17T04:29:21.896Z,2.50
2022-10-17T04:31:49.819Z,2.83
2022-10-17T04:34:17.348Z,2.63
2022-10-17T04:36:44.211Z,2.17
2022-10-17T04:39:11.058Z,2.50
2022-10-17T04:41:37.830Z,2.47
2022-10-17T04:44:04.745Z,2.03
2022-10-17T04:46:34.095Z,2.27
2022-10-17T04:49:00.833Z,2.13
2022-10-17T04:51:27.669Z,2.50
2022-10-17T04:53:55.182Z,2.40
2022-10-17T04:56:24.271Z,2.17
2022-10-17T04:58:51.811Z,2.40
2022-10-17T05:01:22.694Z,2.30
2022-10-17T05:03:49.943Z,2.40
2022-10-17T05:06:24.870Z,2.20
2022-10-17T05:08:51.673Z,2.40
2022-10-17T05:11:21.038Z,2.30
2022-10-17T05:13:54.684Z,2.50
2022-10-17T05:16:21.920Z,2.20
2022-10-17T05:18:53.339Z,2.30
2022-10-17T05:21:21.836Z,2.50
2022-10-17T05:23:48.856Z,2.17
2022-10-17T05:26:16.449Z,2.23
2022-10-17T05:28:43.367Z,2.17
2022-10-17T05:31:11.802Z,2.37
2022-10-17T05:33:39.589Z,2.40
2022-10-17T05:36:07.347Z,2.40
2022-10-17T05:38:34.235Z,2.40
2022-10-17T05:41:02.917Z,2.50
2022-10-17T05:43:30.394Z,2.40
2022-10-17T05:45:57.691Z,2.20
2022-10-17T05:48:25.328Z,2.23
2022-10-17T05:51:02.090Z,2.53
2022-10-17T05:53:33.694Z,2.50
2022-10-17T05:56:02.134Z,2.40
2022-10-17T06:01:16.108Z,2.20
2022-10-17T06:03:42.930Z,2.00
2022-10-17T06:06:12.371Z,2.10
2022-10-17T06:08:39.368Z,2.00
2022-10-17T06:11:09.868Z,2.07
2022-10-17T06:13:37.945Z,2.53
2022-10-17T06:16:05.413Z,2.27
2022-10-17T06:18:32.595Z,2.43
2022-10-17T06:21:07.234Z,2.00
2022-10-17T06:23:34.541Z,2.20
2022-10-17T06:26:02.612Z,2.10
2022-10-17T06:28:29.662Z,2.30
2022-10-17T06:30:57.015Z,2.20
2022-10-17T06:33:23.903Z,2.40
2022-10-17T06:35:54.775Z,2.10
2022-10-17T06:38:22.413Z,2.23
2022-10-17T06:40:51.299Z,2.30
2022-10-17T06:43:18.649Z,2.33
2022-10-17T06:45:48.779Z,2.40
2022-10-17T06:48:15.944Z,2.60
2022-10-17T06:50:42.881Z,2.70
2022-10-17T06:53:09.979Z,2.33
2022-10-17T06:55:36.872Z,2.13
2022-10-17T06:58:03.633Z,2.40
2022-10-17T07:00:30.505Z,2.60
2022-10-17T07:02:57.350Z,2.07
2022-10-17T07:05:24.530Z,2.33
2022-10-17T07:07:52.037Z,2.70
2022-10-17T07:10:19.284Z,2.70
2022-10-17T07:12:46.271Z,2.30
2022-10-17T07:15:13.283Z,2.30
2022-10-17T07:17:40.185Z,2.37
2022-10-17T07:20:07.606Z,2.53
2022-10-17T07:22:35.051Z,2.40
2022-10-17T07:25:01.914Z,2.20
2022-10-17T07:27:29.117Z,2.10
2022-10-17T07:29:56.240Z,2.30
2022-10-17T07:32:22.936Z,2.20
2022-10-17T07:34:49.534Z,2.20
2022-10-17T07:37:16.403Z,2.00
2022-10-17T07:39:43.002Z,2.47
2022-10-17T07:42:10.351Z,2.20
2022-10-17T07:44:37.106Z,2.23
2022-10-17T07:47:04.292Z,2.00
2022-10-17T07:49:31.259Z,2.30
2022-10-17T07:51:57.852Z,2.03
2022-10-17T07:54:24.552Z,2.10
2022-10-17T07:56:53.125Z,2.20
2022-10-17T07:59:20.486Z,2.20
2022-10-17T08:01:47.274Z,2.43
2022-10-17T08:04:13.925Z,2.37
2022-10-17T08:06:40.518Z,2.50
2022-10-17T08:09:07.136Z,2.40
2022-10-17T08:11:35.911Z,2.23
2022-10-17T08:14:02.545Z,2.60
2022-10-17T08:16:29.146Z,2.70
2022-10-17T08:18:55.738Z,2.83
2022-10-17T08:21:22.416Z,2.80
2022-10-17T08:23:49.341Z,2.40
2022-10-17T08:26:17.223Z,2.30
2022-10-17T08:28:44.365Z,2.80
2022-10-17T08:31:13.804Z,2.50
2022-10-17T08:33:41.494Z,2.80
2022-10-17T08:36:09.357Z,2.93
2022-10-17T08:38:38.474Z,2.60
2022-10-17T08:41:34.747Z,2.40
2022-10-17T08:44:43.097Z,3.00
2022-10-17T08:47:13.503Z,2.80
2022-10-17T08:49:52.224Z,3.10
2022-10-17T08:52:39.555Z,2.70
2022-10-17T08:55:23.123Z,2.53
2022-10-17T08:57:49.839Z,2.70
2022-10-17T09:00:21.002Z,2.40
2022-10-17T09:03:48.518Z,2.60
2022-10-17T09:06:35.501Z,2.90
2022-10-17T09:09:10.499Z,2.80
2022-10-17T09:11:43.385Z,2.80
2022-10-17T09:14:21.787Z,2.70
2022-10-17T09:17:06.966Z,2.77
2022-10-17T09:19:52.809Z,2.40
2022-10-17T09:22:22.906Z,2.90
2022-10-17T09:24:55.623Z,2.43
2022-10-17T09:27:39.214Z,3.30
2022-10-17T09:30:46.488Z,3.00
2022-10-17T09:33:34.880Z,2.53
2022-10-17T09:36:14.389Z,2.60
2022-10-17T09:38:43.420Z,2.80
2022-10-17T09:41:43.151Z,2.43
2022-10-17T09:44:32.971Z,2.43
2022-10-17T09:47:23.429Z,2.70
2022-10-17T09:49:50.681Z,2.70
2022-10-17T09:52:22.593Z,2.40
2022-10-17T09:54:51.735Z,2.50
2022-10-17T09:57:19.923Z,2.70
2022-10-17T09:59:55.653Z,2.70
2022-10-17T10:02:24.882Z,2.37
2022-10-17T10:05:06.449Z,2.40
2022-10-17T10:07:37.245Z,2.70
2022-10-17T10:10:06.731Z,2.83
2022-10-17T10:12:36.905Z,2.67
2022-10-17T10:15:41.102Z,2.60
2022-10-17T10:18:26.604Z,2.60
2022-10-17T10:21:16.483Z,2.70
2022-10-17T10:23:45.183Z,2.60
2022-10-17T10:26:20.269Z,2.33
2022-10-17T10:29:20.741Z,2.80
2022-10-17T10:31:51.236Z,2.60
2022-10-17T10:34:35.589Z,2.80
2022-10-17T10:37:17.034Z,2.60
2022-10-17T10:39:54.297Z,2.50
2022-10-17T10:45:53.676Z,2.80
2022-10-17T10:48:23.189Z,2.70
2022-10-17T10:50:51.045Z,2.50
2022-10-17T10:53:35.538Z,2.60
2022-10-17T10:56:19.507Z,2.63
2022-10-17T10:59:03.397Z,3.00
2022-10-17T11:01:41.662Z,2.30
2022-10-17T11:04:32.514Z,2.50
2022-10-17T11:07:04.725Z,2.50
2022-10-17T11:09:34.089Z,2.37
2022-10-17T11:12:23.626Z,2.63
2022-10-17T11:15:13.217Z,2.47
2022-10-17T11:17:57.555Z,2.40
2022-10-17T11:20:40.593Z,2.40
2022-10-17T11:23:21.534Z,2.17
2022-10-17T11:25:52.800Z,2.53
2022-10-17T11:28:21.272Z,2.50
2022-10-17T11:30:50.889Z,2.27
2022-10-17T11:34:06.498Z,2.20
2022-10-17T11:36:36.360Z,2.10
2022-10-17T11:39:11.919Z,2.40
2022-10-17T11:42:21.982Z,2.30
2022-10-17T11:49:04.217Z,2.10
2022-10-17T11:52:55.567Z,2.30
2022-10-17T11:59:29.949Z,2.20
2022-10-17T12:03:08.054Z,2.10
2022-10-17T12:06:08.550Z,1.60
2022-10-17T12:16:17.429Z,2.00
2022-10-17T12:19:21.596Z,2.03
2022-10-17T12:22:18.517Z,3.23
2022-10-17T12:24:59.979Z,3.93
2022-10-17T12:28:25.460Z,4.10
2022-10-17T12:31:38.755Z,3.47
2022-10-17T12:34:05.965Z,4.17
2022-10-17T12:36:41.334Z,4.87
2022-10-17T12:39:22.792Z,3.90
2022-10-17T12:41:54.836Z,3.90
2022-10-17T12:44:43.526Z,4.10
2022-10-17T12:47:43.935Z,3.57
2022-10-17T12:51:34.852Z,2.77
2022-10-17T12:54:00.770Z,2.90
2022-10-17T12:56:49.176Z,2.73
2022-10-17T13:02:37.362Z,2.20
2022-10-17T13:05:26.556Z,2.60
2022-10-17T13:07:53.665Z,2.10
2022-10-17T13:10:23.185Z,2.00
2022-10-17T13:12:51.204Z,2.23
2022-10-17T13:15:19.709Z,2.20
2022-10-17T13:17:54.770Z,2.13
2022-10-17T13:20:28.878Z,1.90
2022-10-17T13:22:58.807Z,1.70
2022-10-17T13:25:28.030Z,1.83
2022-10-17T13:28:05.958Z,2.03
2022-10-17T13:30:35.455Z,1.90
2022-10-17T13:33:03.430Z,1.90
2022-10-17T13:35:59.059Z,1.90
2022-10-17T13:38:28.727Z,1.93
2022-10-17T13:41:02.030Z,1.70
2022-10-17T13:43:33.265Z,2.17
2022-10-17T13:46:25.422Z,1.90
2022-10-17T13:48:52.749Z,1.67
2022-10-17T13:51:19.816Z,1.80
2022-10-17T13:53:46.514Z,1.90
2022-10-17T13:56:29.886Z,1.87
2022-10-17T13:59:00.506Z,1.87
2022-10-17T14:01:28.895Z,1.70
2022-10-17T14:04:07.913Z,1.83
2022-10-17T14:06:46.321Z,1.90
2022-10-17T14:09:26.119Z,1.90
2022-10-17T14:12:16.601Z,1.70
2022-10-17T14:15:09.890Z,1.57
2022-10-17T14:17:38.576Z,1.80
2022-10-17T14:20:40.755Z,1.67
2022-10-17T14:23:17.906Z,1.60
2022-10-17T14:25:49.558Z,1.57
2022-10-17T14:28:16.978Z,1.50
2022-10-17T14:31:01.162Z,1.60
2022-10-17T14:33:30.625Z,1.70
2022-10-17T14:36:01.684Z,1.83
2022-10-17T14:38:29.770Z,1.60
2022-10-17T14:41:41.900Z,1.70
2022-10-17T14:44:26.772Z,1.80
2022-10-17T14:47:05.932Z,2.00
2022-10-17T14:49:41.098Z,1.83
2022-10-17T14:52:17.972Z,1.80
2022-10-17T14:54:47.571Z,1.80
2022-10-17T14:57:20.032Z,1.77
2022-10-17T14:59:55.417Z,1.77
2022-10-17T15:02:27.792Z,1.70
2022-10-17T15:04:55.958Z,1.87
2022-10-17T15:07:23.725Z,2.20
2022-10-17T15:09:51.904Z,1.90
2022-10-17T15:12:21.219Z,1.77
2022-10-17T15:14:48.557Z,1.63
2022-10-17T15:20:16.709Z,1.60
2022-10-17T15:22:43.486Z,1.80
2022-10-17T15:25:10.255Z,2.03
2022-10-17T15:27:37.028Z,1.83
2022-10-17T15:30:04.763Z,1.80
2022-10-17T15:32:31.513Z,1.80
2022-10-17T15:34:58.298Z,2.03
2022-10-17T15:37:25.779Z,2.20
2022-10-17T15:39:54.522Z,2.10
2022-10-17T15:42:22.964Z,2.07
2022-10-17T15:44:50.268Z,2.30
2022-10-17T15:47:28.479Z,2.33
2022-10-17T15:49:55.794Z,2.83
2022-10-17T15:52:23.550Z,2.40
2022-10-17T15:54:50.588Z,2.13
2022-10-17T15:57:21.288Z,2.00
2022-10-17T15:59:48.325Z,2.20
2022-10-17T16:02:16.302Z,2.37
2022-10-17T16:04:44.964Z,2.27
2022-10-17T16:07:11.771Z,2.07
2022-10-17T16:09:38.860Z,2.40
2022-10-17T16:12:07.079Z,2.20
2022-10-17T16:14:34.067Z,2.37
2022-10-17T16:17:01.323Z,2.90
2022-10-17T16:19:30.096Z,2.73
2022-10-17T16:21:59.623Z,2.60
2022-10-17T16:24:28.880Z,2.77
2022-10-17T16:26:55.682Z,2.63
2022-10-17T16:29:22.425Z,2.70
2022-10-17T16:31:51.385Z,2.80
2022-10-17T16:34:18.068Z,2.60
2022-10-17T16:36:44.922Z,2.50
2022-10-17T16:39:11.671Z,2.60
2022-10-17T16:41:39.493Z,2.50
2022-10-17T16:44:08.191Z,2.40
2022-10-17T16:46:36.991Z,2.67
2022-10-17T16:49:05.416Z,2.60
2022-10-17T16:51:33.770Z,2.57
2022-10-17T16:54:00.658Z,2.50
2022-10-17T16:56:32.615Z,2.50
2022-10-17T16:59:00.489Z,2.60
2022-10-17T17:01:29.460Z,2.63
2022-10-17T17:03:56.814Z,2.47
2022-10-17T17:06:26.705Z,2.43
2022-10-17T17:08:54.440Z,2.87
2022-10-17T17:11:23.471Z,2.70
2022-10-17T17:13:50.552Z,2.60
2022-10-17T17:16:22.949Z,2.80
2022-10-17T17:19:00.769Z,2.70
2022-10-17T17:21:27.901Z,2.77
2022-10-17T17:23:58.965Z,3.00
2022-10-17T17:26:27.294Z,3.00
2022-10-17T17:28:54.266Z,2.80
2022-10-17T17:31:23.336Z,2.70
2022-10-17T17:33:51.122Z,3.10
2022-10-17T17:36:24.219Z,3.27
2022-10-17T17:38:51.863Z,3.40
2022-10-17T17:41:20.101Z,3.43
2022-10-17T17:43:48.028Z,3.60
2022-10-17T17:46:16.898Z,3.27
2022-10-17T17:48:45.447Z,3.50
2022-10-17T17:51:13.973Z,3.47
2022-10-17T17:53:41.124Z,3.83
2022-10-17T17:56:17.874Z,3.80
2022-10-17T17:58:46.106Z,3.80
2022-10-17T18:01:21.206Z,3.60
2022-10-17T18:03:52.375Z,3.60
2022-10-17T18:06:20.279Z,3.63
2022-10-17T18:08:49.345Z,3.60
2022-10-17T18:11:18.412Z,3.80
2022-10-17T18:13:48.134Z,4.10
2022-10-17T18:16:16.811Z,4.20
2022-10-17T18:18:45.013Z,3.83
2022-10-17T18:21:13.231Z,4.20
2022-10-17T18:23:41.129Z,4.13
2022-10-17T18:26:08.347Z,4.10
2022-10-17T18:28:39.603Z,3.90
2022-10-17T18:31:08.278Z,4.13
2022-10-17T18:33:35.441Z,4.23
2022-10-17T18:36:07.004Z,3.57
2022-10-17T18:38:34.244Z,3.80
2022-10-17T18:41:27.441Z,3.80
2022-10-17T18:43:55.328Z,3.90
2022-10-17T18:46:28.460Z,3.93
2022-10-17T18:48:56.733Z,3.73
2022-10-17T18:51:24.851Z,3.60
2022-10-17T18:53:53.854Z,3.80
2022-10-17T18:56:21.473Z,3.70
2022-10-17T18:58:48.526Z,3.50
2022-10-17T19:01:23.633Z,3.60
2022-10-17T19:03:51.626Z,3.70
2022-10-17T19:06:20.386Z,3.53
2022-10-17T19:08:47.918Z,3.80
2022-10-17T19:11:18.798Z,3.50
2022-10-17T19:16:27.250Z,3.50
2022-10-17T19:18:59.989Z,3.70
2022-10-17T19:21:27.037Z,3.90
2022-10-17T19:24:04.386Z,3.90
2022-10-17T19:26:33.147Z,4.03
2022-10-17T19:29:00.693Z,4.13
2022-10-17T19:33:56.417Z,3.83
2022-10-17T19:36:27.600Z,3.63
2022-10-17T19:38:58.138Z,3.70
2022-10-17T19:41:25.264Z,3.67
2022-10-17T19:43:51.977Z,3.70
2022-10-17T19:46:21.081Z,3.90
2022-10-17T19:48:48.835Z,3.87
2022-10-17T19:51:17.204Z,4.10
2022-10-17T19:53:44.534Z,3.83
2022-10-17T19:56:11.624Z,3.80
2022-10-17T19:58:45.237Z,4.03
2022-10-17T20:01:14.488Z,3.90
2022-10-17T20:03:41.810Z,3.87
2022-10-17T20:06:08.978Z,3.70
2022-10-17T20:08:36.745Z,3.70
2022-10-17T20:11:11.169Z,4.23
2022-10-17T20:13:38.574Z,4.10
2022-10-17T20:16:06.306Z,4.40
2022-10-17T20:18:33.350Z,4.07
2022-10-17T20:21:08.799Z,4.40
2022-10-17T20:23:36.773Z,4.23
2022-10-17T20:26:25.506Z,3.83
2022-10-17T20:28:52.969Z,4.17
2022-10-17T20:31:20.380Z,4.10
2022-10-17T20:33:51.873Z,4.53
2022-10-17T20:36:23.170Z,4.07
2022-10-17T20:38:56.344Z,4.50
2022-10-17T20:41:23.443Z,4.20
2022-10-17T20:43:51.540Z,3.97
2022-10-17T20:46:34.959Z,4.23
2022-10-17T20:49:03.253Z,4.27
2022-10-17T20:51:29.938Z,4.43
2022-10-17T20:56:30.403Z,4.43
2022-10-17T20:58:59.086Z,4.10
2022-10-17T21:01:26.752Z,4.30
2022-10-17T21:03:53.587Z,4.13
2022-10-17T21:06:20.694Z,4.03
2022-10-17T21:08:47.605Z,4.10
2022-10-17T21:11:17.494Z,4.13
2022-10-17T21:13:44.564Z,4.00
2022-10-17T21:16:14.190Z,4.20
2022-10-17T21:18:41.378Z,4.43
2022-10-17T21:21:10.440Z,4.30
2022-10-17T21:23:37.745Z,4.20
2022-10-17T21:26:05.932Z,4.03
2022-10-17T21:28:33.350Z,4.30
2022-10-17T21:31:21.350Z,4.20
2022-10-17T21:33:59.456Z,4.10
2022-10-17T21:36:27.404Z,4.47
2022-10-17T21:38:55.837Z,4.33
2022-10-17T21:41:25.025Z,4.33
2022-10-17T21:43:56.730Z,4.50
2022-10-17T21:46:23.749Z,4.30
2022-10-17T21:48:51.817Z,4.27
2022-10-17T21:51:21.815Z,4.03
2022-10-17T21:53:49.507Z,4.10
2022-10-17T21:56:20.821Z,4.20
2022-10-17T21:58:48.235Z,4.17
2022-10-17T22:01:20.360Z,4.20
2022-10-17T22:03:49.295Z,4.07
2022-10-17T22:06:38.828Z,4.30
2022-10-17T22:09:07.033Z,4.23
2022-10-17T22:11:35.093Z,4.23
2022-10-17T22:14:06.696Z,4.17
2022-10-17T22:16:33.916Z,4.27
2022-10-17T22:19:05.898Z,4.50
2022-10-17T22:21:34.513Z,4.00
2022-10-17T22:24:03.789Z,4.23
2022-10-17T22:26:32.148Z,4.37
2022-10-17T22:28:58.944Z,4.10
2022-10-17T22:31:26.163Z,4.17
2022-10-17T22:33:52.843Z,4.10
2022-10-17T22:36:19.508Z,3.77
2022-10-17T22:38:46.143Z,4.10
2022-10-17T22:41:12.751Z,3.83
2022-10-17T22:43:39.422Z,3.90
2022-10-17T22:46:07.285Z,4.10
2022-10-17T22:48:34.222Z,3.97
2022-10-17T22:51:01.029Z,4.10
2022-10-17T22:53:29.304Z,4.43
2022-10-17T22:55:58.757Z,4.07
2022-10-17T22:58:26.542Z,3.90
2022-10-17T23:00:53.982Z,4.00
2022-10-17T23:03:21.322Z,3.70
2022-10-17T23:05:49.741Z,3.63
2022-10-17T23:08:18.112Z,3.90
2022-10-17T23:10:45.811Z,3.73
2022-10-17T23:13:12.674Z,3.40
2022-10-17T23:15:39.686Z,3.87
2022-10-17T23:18:06.969Z,4.03
2022-10-17T23:20:36.502Z,3.20
2022-10-17T23:23:03.345Z,3.43
2022-10-17T23:25:29.933Z,3.53
2022-10-17T23:27:56.582Z,3.80
2022-10-17T23:30:25.719Z,3.80
2022-10-17T23:32:53.478Z,3.70
2022-10-17T23:35:20.087Z,3.27
2022-10-17T23:37:46.711Z,3.43
2022-10-17T23:40:13.442Z,3.77
2022-10-17T23:42:42.837Z,3.67
2022-10-17T23:45:09.944Z,3.60
2022-10-17T23:47:36.572Z,3.77
2022-10-17T23:50:04.203Z,3.40
2022-10-17T23:52:30.839Z,2.97
2022-10-17T23:54:57.482Z,3.30
2022-10-17T23:57:24.110Z,3.50
2022-10-17T23:59:50.770Z,3.50
